createdAt,value
2022-08-25T00:00:36.444Z,0.00
2022-08-25T00:01:36.436Z,0.00
2022-08-25T00:02:36.458Z,0.00
2022-08-25T00:03:39.512Z,0.00
2022-08-25T00:04:36.399Z,0.00
2022-08-25T00:05:36.422Z,0.00
2022-08-25T00:06:36.392Z,0.00
2022-08-25T00:07:36.367Z,0.00
2022-08-25T00:08:36.356Z,0.00
2022-08-25T00:09:36.346Z,0.00
2022-08-25T00:10:36.335Z,0.00
2022-08-25T00:11:36.343Z,0.00
2022-08-25T00:12:36.317Z,0.00
2022-08-25T00:13:36.303Z,0.00
2022-08-25T00:14:36.298Z,0.00
2022-08-25T00:15:36.405Z,0.00
2022-08-25T00:16:36.282Z,0.00
2022-08-25T00:17:36.266Z,0.00
2022-08-25T00:18:36.260Z,0.00
2022-08-25T00:19:36.247Z,0.00
2022-08-25T00:20:36.237Z,0.00
2022-08-25T00:21:36.259Z,0.00
2022-08-25T00:22:36.219Z,0.00
2022-08-25T00:23:36.208Z,0.00
2022-08-25T00:24:36.207Z,0.00
2022-08-25T00:25:36.191Z,0.00
2022-08-25T00:26:36.221Z,0.00
2022-08-25T00:27:36.172Z,0.00
2022-08-25T00:28:36.158Z,0.00
2022-08-25T00:29:36.153Z,0.00
2022-08-25T00:30:36.145Z,0.00
2022-08-25T00:31:37.688Z,0.00
2022-08-25T00:32:36.138Z,0.00
2022-08-25T00:33:36.116Z,0.00
2022-08-25T00:34:36.107Z,0.00
2022-08-25T00:35:36.098Z,0.00
2022-08-25T00:36:36.091Z,0.00
2022-08-25T00:37:36.093Z,0.00
2022-08-25T00:38:36.078Z,0.00
2022-08-25T00:39:36.058Z,0.00
2022-08-25T00:40:36.131Z,0.00
2022-08-25T00:41:36.043Z,0.00
2022-08-25T00:42:36.047Z,0.00
2022-08-25T00:43:36.020Z,0.00
2022-08-25T00:44:36.012Z,0.00
2022-08-25T00:45:36.005Z,0.00
2022-08-25T00:46:36.071Z,0.00
2022-08-25T00:47:36.013Z,0.00
2022-08-25T00:48:35.972Z,0.00
2022-08-25T00:49:35.962Z,0.00
2022-08-25T00:50:35.955Z,0.00
2022-08-25T00:51:35.942Z,0.00
2022-08-25T00:52:36.957Z,0.00
2022-08-25T00:53:35.926Z,0.00
2022-08-25T00:54:35.917Z,0.00
2022-08-25T00:55:35.903Z,0.00
2022-08-25T00:56:35.894Z,0.00
2022-08-25T00:57:35.904Z,0.00
2022-08-25T00:58:35.889Z,0.00
2022-08-25T00:59:35.869Z,0.00
2022-08-25T01:00:35.864Z,0.00
2022-08-25T01:01:35.968Z,0.00
2022-08-25T01:02:35.935Z,0.00
2022-08-25T01:03:35.997Z,0.00
2022-08-25T01:04:35.820Z,0.00
2022-08-25T01:05:35.815Z,0.00
2022-08-25T01:06:35.802Z,0.00
2022-08-25T01:07:35.861Z,0.00
2022-08-25T01:08:35.805Z,0.00
2022-08-25T01:09:35.771Z,0.00
2022-08-25T01:10:35.767Z,0.00
2022-08-25T01:11:35.756Z,0.00
2022-08-25T01:12:35.741Z,0.00
2022-08-25T01:13:35.748Z,0.00
2022-08-25T01:14:35.719Z,0.00
2022-08-25T01:15:35.750Z,0.00
2022-08-25T01:16:35.700Z,0.00
2022-08-25T01:17:35.698Z,0.00
2022-08-25T01:18:35.698Z,0.00
2022-08-25T01:19:35.675Z,0.00
2022-08-25T01:20:35.672Z,0.00
2022-08-25T01:21:35.658Z,0.00
2022-08-25T01:22:35.643Z,0.00
2022-08-25T01:23:35.669Z,0.00
2022-08-25T01:24:36.629Z,0.00
2022-08-25T01:25:35.613Z,0.00
2022-08-25T01:26:35.609Z,0.00
2022-08-25T01:27:35.600Z,0.00
2022-08-25T01:28:35.605Z,0.00
2022-08-25T01:29:35.577Z,0.00
2022-08-25T01:30:35.606Z,0.00
2022-08-25T01:31:35.592Z,0.00
2022-08-25T01:32:35.552Z,0.00
2022-08-25T01:33:35.599Z,0.00
2022-08-25T01:34:35.537Z,0.00
2022-08-25T01:35:35.527Z,0.00
2022-08-25T01:36:35.523Z,0.00
2022-08-25T01:37:35.509Z,0.00
2022-08-25T01:38:35.557Z,0.00
2022-08-25T01:39:35.487Z,0.00
2022-08-25T01:40:35.515Z,0.00
2022-08-25T01:41:35.547Z,0.00
2022-08-25T01:42:35.455Z,0.00
2022-08-25T01:43:35.452Z,0.00
2022-08-25T01:44:35.456Z,0.00
2022-08-25T01:45:35.426Z,0.00
2022-08-25T01:46:35.471Z,0.00
2022-08-25T01:47:35.406Z,0.00
2022-08-25T01:48:35.403Z,0.00
2022-08-25T01:49:35.416Z,0.00
2022-08-25T01:50:35.380Z,0.00
2022-08-25T01:51:35.380Z,0.00
2022-08-25T01:52:35.363Z,0.00
2022-08-25T01:53:35.353Z,0.00
2022-08-25T01:54:35.361Z,0.00
2022-08-25T01:55:35.352Z,0.00
2022-08-25T01:56:35.326Z,0.00
2022-08-25T01:57:35.314Z,0.00
2022-08-25T01:58:35.308Z,0.00
2022-08-25T01:59:35.313Z,0.00
2022-08-25T02:00:35.287Z,0.00
2022-08-25T02:01:35.352Z,0.00
2022-08-25T02:02:35.309Z,0.00
2022-08-25T02:03:35.258Z,0.00
2022-08-25T02:04:35.263Z,0.00
2022-08-25T02:05:35.242Z,0.00
2022-08-25T02:06:35.227Z,0.00
2022-08-25T02:07:35.221Z,0.00
2022-08-25T02:09:07.109Z,0.00
2022-08-25T02:09:35.236Z,0.00
2022-08-25T02:10:35.197Z,0.00
2022-08-25T02:11:35.189Z,0.00
2022-08-25T02:12:35.177Z,0.00
2022-08-25T02:13:35.166Z,0.00
2022-08-25T02:14:35.187Z,0.00
2022-08-25T02:15:35.142Z,0.00
2022-08-25T02:16:35.175Z,0.00
2022-08-25T02:17:35.121Z,0.00
2022-08-25T02:18:35.118Z,0.00
2022-08-25T02:19:35.114Z,0.00
2022-08-25T02:20:35.115Z,0.00
2022-08-25T02:21:35.084Z,0.00
2022-08-25T02:22:35.077Z,0.00
2022-08-25T02:23:35.062Z,0.00
2022-08-25T02:24:35.056Z,0.00
2022-08-25T02:25:35.065Z,0.00
2022-08-25T02:26:35.035Z,0.00
2022-08-25T02:27:35.036Z,0.00
2022-08-25T02:28:35.018Z,0.00
2022-08-25T02:29:35.009Z,0.00
2022-08-25T02:30:35.042Z,0.00
2022-08-25T02:31:34.984Z,0.00
2022-08-25T02:32:34.974Z,0.00
2022-08-25T02:33:34.968Z,0.00
2022-08-25T02:34:34.959Z,0.00
2022-08-25T02:35:34.962Z,0.00
2022-08-25T02:36:34.939Z,0.00
2022-08-25T02:37:34.926Z,0.00
2022-08-25T02:38:34.915Z,0.00
2022-08-25T02:39:34.908Z,0.00
2022-08-25T02:40:34.944Z,0.00
2022-08-25T02:41:34.882Z,0.00
2022-08-25T02:42:34.877Z,0.00
2022-08-25T02:43:34.867Z,0.00
2022-08-25T02:44:34.865Z,0.00
2022-08-25T02:45:34.913Z,0.00
2022-08-25T02:46:34.838Z,0.00
2022-08-25T02:47:34.829Z,0.00
2022-08-25T02:48:34.824Z,0.00
2022-08-25T02:49:34.812Z,0.00
2022-08-25T02:50:34.800Z,0.00
2022-08-25T02:51:34.811Z,0.00
2022-08-25T02:52:34.785Z,0.00
2022-08-25T02:53:34.776Z,0.00
2022-08-25T02:54:34.765Z,0.00
2022-08-25T02:55:34.764Z,0.00
2022-08-25T02:56:34.766Z,0.00
2022-08-25T02:57:34.737Z,0.00
2022-08-25T02:58:34.729Z,0.00
2022-08-25T02:59:34.718Z,0.00
2022-08-25T03:00:34.708Z,0.00
2022-08-25T03:01:34.754Z,0.00
2022-08-25T03:02:34.695Z,0.00
2022-08-25T03:03:39.247Z,0.00
2022-08-25T03:04:35.698Z,0.00
2022-08-25T03:05:34.662Z,0.00
2022-08-25T03:06:34.668Z,0.00
2022-08-25T03:07:35.509Z,0.00
2022-08-25T03:08:34.631Z,0.00
2022-08-25T03:09:34.623Z,0.00
2022-08-25T03:10:34.613Z,0.00
2022-08-25T03:11:34.623Z,0.00
2022-08-25T03:12:34.610Z,0.00
2022-08-25T03:13:34.586Z,0.00
2022-08-25T03:14:34.571Z,0.00
2022-08-25T03:15:34.564Z,0.00
2022-08-25T03:16:34.706Z,0.00
2022-08-25T03:17:35.597Z,0.00
2022-08-25T03:18:34.539Z,0.00
2022-08-25T03:19:34.526Z,0.00
2022-08-25T03:20:34.521Z,0.00
2022-08-25T03:21:34.545Z,0.00
2022-08-25T03:22:34.502Z,0.00
2022-08-25T03:23:34.488Z,0.00
2022-08-25T03:24:34.477Z,0.00
2022-08-25T03:25:34.472Z,0.00
2022-08-25T03:26:34.447Z,0.00
2022-08-25T03:27:35.470Z,0.00
2022-08-25T03:28:34.445Z,0.00
2022-08-25T03:29:34.435Z,0.00
2022-08-25T03:30:34.425Z,0.00
2022-08-25T03:31:34.481Z,0.00
2022-08-25T03:32:34.419Z,0.00
2022-08-25T03:33:34.395Z,0.00
2022-08-25T03:34:34.384Z,0.00
2022-08-25T03:35:34.371Z,0.00
2022-08-25T03:36:34.365Z,0.00
2022-08-25T03:37:34.371Z,0.00
2022-08-25T03:38:34.346Z,0.00
2022-08-25T03:39:34.332Z,0.00
2022-08-25T03:40:34.327Z,0.00
2022-08-25T03:41:34.314Z,0.00
2022-08-25T03:42:34.324Z,0.00
2022-08-25T03:43:34.301Z,0.00
2022-08-25T03:44:34.286Z,0.00
2022-08-25T03:45:34.320Z,0.00
2022-08-25T03:46:34.273Z,0.00
2022-08-25T03:47:34.289Z,0.00
2022-08-25T03:48:34.250Z,0.00
2022-08-25T03:49:34.254Z,0.00
2022-08-25T03:50:34.230Z,0.00
2022-08-25T03:51:34.222Z,0.00
2022-08-25T03:52:34.936Z,4.00
2022-08-25T03:53:34.201Z,4.00
2022-08-25T03:54:34.190Z,0.00
2022-08-25T03:55:34.183Z,4.00
2022-08-25T03:56:34.171Z,4.00
2022-08-25T03:57:34.163Z,4.00
2022-08-25T03:58:34.173Z,4.00
2022-08-25T03:59:34.150Z,4.00
2022-08-25T04:00:34.140Z,4.00
2022-08-25T04:01:34.174Z,4.00
2022-08-25T04:02:34.185Z,8.00
2022-08-25T04:03:34.118Z,4.00
2022-08-25T04:04:34.094Z,8.00
2022-08-25T04:05:34.086Z,8.00
2022-08-25T04:06:34.073Z,12.00
2022-08-25T04:07:34.061Z,12.00
2022-08-25T04:08:34.070Z,16.00
2022-08-25T04:09:36.809Z,16.00
2022-08-25T04:10:35.037Z,20.00
2022-08-25T04:11:34.027Z,20.00
2022-08-25T04:12:34.032Z,24.00
2022-08-25T04:13:34.026Z,28.00
2022-08-25T04:14:34.003Z,32.00
2022-08-25T04:15:33.991Z,36.00
2022-08-25T04:16:34.020Z,40.00
2022-08-25T04:17:33.970Z,48.00
2022-08-25T04:18:34.000Z,48.00
2022-08-25T04:19:33.950Z,52.00
2022-08-25T04:20:33.945Z,64.00
2022-08-25T04:21:33.931Z,68.00
2022-08-25T04:22:33.916Z,72.00
2022-08-25T04:23:34.946Z,80.00
2022-08-25T04:24:33.907Z,88.00
2022-08-25T04:25:33.892Z,96.00
2022-08-25T04:26:33.887Z,100.00
2022-08-25T04:27:33.874Z,108.00
2022-08-25T04:28:33.879Z,116.00
2022-08-25T04:29:33.873Z,124.00
2022-08-25T04:30:33.846Z,136.00
2022-08-25T04:31:33.866Z,148.00
2022-08-25T04:32:33.848Z,156.00
2022-08-25T04:33:33.826Z,168.00
2022-08-25T04:34:33.841Z,176.00
2022-08-25T04:35:33.795Z,184.00
2022-08-25T04:36:33.784Z,196.00
2022-08-25T04:37:33.771Z,212.00
2022-08-25T04:38:33.780Z,224.00
2022-08-25T04:39:33.775Z,244.00
2022-08-25T04:40:33.777Z,260.00
2022-08-25T04:41:33.739Z,280.00
2022-08-25T04:42:33.727Z,300.00
2022-08-25T04:43:33.735Z,324.00
2022-08-25T04:44:33.725Z,344.00
2022-08-25T04:45:33.726Z,364.00
2022-08-25T04:46:33.691Z,384.00
2022-08-25T04:47:33.685Z,404.00
2022-08-25T04:48:33.683Z,428.00
2022-08-25T04:49:33.680Z,452.00
2022-08-25T04:50:33.649Z,476.00
2022-08-25T04:51:33.641Z,496.00
2022-08-25T04:52:33.629Z,520.00
2022-08-25T04:53:33.638Z,548.00
2022-08-25T04:54:37.120Z,572.00
2022-08-25T04:55:33.602Z,600.00
2022-08-25T04:56:33.593Z,620.00
2022-08-25T04:57:33.584Z,648.00
2022-08-25T04:58:33.591Z,672.00
2022-08-25T04:59:33.585Z,692.00
2022-08-25T05:00:33.574Z,716.00
2022-08-25T05:01:33.545Z,740.00
2022-08-25T05:02:33.533Z,760.00
2022-08-25T05:03:33.537Z,780.00
2022-08-25T05:04:33.624Z,804.00
2022-08-25T05:05:33.848Z,828.00
2022-08-25T05:06:33.495Z,848.00
2022-08-25T05:07:33.483Z,876.00
2022-08-25T05:08:33.488Z,896.00
2022-08-25T05:09:33.491Z,924.00
2022-08-25T05:10:33.457Z,948.00
2022-08-25T05:11:33.445Z,968.00
2022-08-25T05:12:33.436Z,992.00
2022-08-25T05:13:33.443Z,1012.00
2022-08-25T05:14:33.436Z,1032.00
2022-08-25T05:15:33.421Z,1056.00
2022-08-25T05:16:33.454Z,1076.00
2022-08-25T05:17:33.388Z,1100.00
2022-08-25T05:18:33.399Z,1120.00
2022-08-25T05:19:33.434Z,1144.00
2022-08-25T05:20:33.355Z,1168.00
2022-08-25T05:21:33.364Z,1192.00
2022-08-25T05:22:33.334Z,1212.00
2022-08-25T05:23:33.341Z,1236.00
2022-08-25T05:24:33.337Z,1256.00
2022-08-25T05:25:33.307Z,1276.00
2022-08-25T05:26:33.295Z,1292.00
2022-08-25T05:27:33.290Z,1308.00
2022-08-25T05:28:33.294Z,1324.00
2022-08-25T05:29:33.291Z,1340.00
2022-08-25T05:30:33.255Z,1360.00
2022-08-25T05:31:33.312Z,1376.00
2022-08-25T05:32:33.241Z,1384.00
2022-08-25T05:33:33.247Z,1396.00
2022-08-25T05:34:33.240Z,1404.00
2022-08-25T05:35:33.215Z,1416.00
2022-08-25T05:36:33.209Z,1432.00
2022-08-25T05:37:33.207Z,1452.00
2022-08-25T05:38:33.202Z,1464.00
2022-08-25T05:39:33.191Z,1476.00
2022-08-25T05:40:33.165Z,1488.00
2022-08-25T05:41:33.150Z,1504.00
2022-08-25T05:42:33.144Z,1516.00
2022-08-25T05:43:33.136Z,1528.00
2022-08-25T05:44:33.141Z,1544.00
2022-08-25T05:45:33.149Z,1560.00
2022-08-25T05:46:33.105Z,1576.00
2022-08-25T05:47:33.099Z,1592.00
2022-08-25T05:48:33.086Z,1612.00
2022-08-25T05:49:33.097Z,1628.00
2022-08-25T05:50:33.067Z,1644.00
2022-08-25T05:51:33.357Z,1656.00
2022-08-25T05:52:33.248Z,1672.00
2022-08-25T05:53:34.000Z,1688.00
2022-08-25T05:54:33.184Z,1704.00
2022-08-25T05:55:33.014Z,1720.00
2022-08-25T05:56:33.007Z,1744.00
2022-08-25T05:57:32.997Z,1800.00
2022-08-25T05:58:32.994Z,1992.00
2022-08-25T05:59:32.994Z,2108.00
2022-08-25T06:00:33.165Z,1796.00
2022-08-25T06:01:34.092Z,1812.00
2022-08-25T06:02:33.118Z,1828.00
2022-08-25T06:03:33.067Z,1860.00
2022-08-25T06:04:33.150Z,1872.00
2022-08-25T06:05:32.921Z,1884.00
2022-08-25T06:06:32.977Z,1920.00
2022-08-25T06:07:32.906Z,1936.00
2022-08-25T06:08:32.893Z,1952.00
2022-08-25T06:09:32.909Z,1988.00
2022-08-25T06:10:32.878Z,2096.00
2022-08-25T06:11:32.869Z,2252.00
2022-08-25T06:12:32.854Z,2364.00
2022-08-25T06:13:32.850Z,2588.00
2022-08-25T06:14:32.857Z,2348.00
2022-08-25T06:15:32.835Z,2564.00
2022-08-25T06:16:32.878Z,3100.00
2022-08-25T06:17:32.814Z,3656.00
2022-08-25T06:18:32.805Z,4352.00
2022-08-25T06:19:32.807Z,5256.00
2022-08-25T06:20:32.781Z,7564.00
2022-08-25T06:21:32.779Z,8668.00
2022-08-25T06:22:32.769Z,7412.00
2022-08-25T06:23:32.989Z,6516.00
2022-08-25T06:24:32.767Z,4436.00
2022-08-25T06:25:32.754Z,8588.00
2022-08-25T06:26:32.794Z,15264.00
2022-08-25T06:27:32.718Z,15552.00
2022-08-25T06:28:32.711Z,14016.00
2022-08-25T06:29:32.716Z,17280.00
2022-08-25T06:30:32.690Z,14752.00
2022-08-25T06:31:32.730Z,14976.00
2022-08-25T06:32:32.668Z,17952.00
2022-08-25T06:33:32.674Z,18720.00
2022-08-25T06:34:32.666Z,17760.00
2022-08-25T06:35:32.643Z,18432.00
2022-08-25T06:36:32.632Z,16640.00
2022-08-25T06:37:32.622Z,14624.00
2022-08-25T06:38:32.611Z,14304.00
2022-08-25T06:39:32.624Z,18848.00
2022-08-25T06:40:32.669Z,17792.00
2022-08-25T06:41:36.884Z,15840.00
2022-08-25T06:42:32.574Z,15552.00
2022-08-25T06:43:32.562Z,15488.00
2022-08-25T06:44:32.572Z,12924.00
2022-08-25T06:45:32.545Z,10732.00
2022-08-25T06:46:36.271Z,11724.00
2022-08-25T06:47:32.520Z,7816.00
2022-08-25T06:48:32.518Z,6180.00
2022-08-25T06:49:35.982Z,4768.00
2022-08-25T06:50:33.497Z,3876.00
2022-08-25T06:51:32.486Z,3416.00
2022-08-25T06:52:32.478Z,3456.00
2022-08-25T06:53:32.466Z,4016.00
2022-08-25T06:54:32.499Z,2476.00
2022-08-25T06:55:32.451Z,2484.00
2022-08-25T06:56:32.451Z,2440.00
2022-08-25T06:57:32.432Z,2448.00
2022-08-25T06:58:32.420Z,2684.00
2022-08-25T06:59:32.624Z,3816.00
2022-08-25T07:00:32.456Z,9072.00
2022-08-25T07:01:32.542Z,8740.00
2022-08-25T07:02:32.432Z,7624.00
2022-08-25T07:03:32.371Z,5076.00
2022-08-25T07:04:32.360Z,5408.00
2022-08-25T07:05:43.406Z,7328.00
2022-08-25T07:06:34.341Z,5984.00
2022-08-25T07:07:43.704Z,4116.00
2022-08-25T07:08:33.319Z,5176.00
2022-08-25T07:09:35.226Z,3224.00
2022-08-25T07:10:33.315Z,8388.00
2022-08-25T07:11:32.290Z,3140.00
2022-08-25T07:12:32.279Z,3128.00
2022-08-25T07:13:32.271Z,2988.00
2022-08-25T07:14:32.261Z,3400.00
2022-08-25T07:15:32.262Z,3144.00
2022-08-25T07:16:32.292Z,3000.00
2022-08-25T07:17:32.232Z,3012.00
2022-08-25T07:18:32.222Z,3140.00
2022-08-25T07:19:32.232Z,3228.00
2022-08-25T07:20:32.245Z,3312.00
2022-08-25T07:21:33.592Z,3288.00
2022-08-25T07:22:33.189Z,3224.00
2022-08-25T07:23:32.176Z,3256.00
2022-08-25T07:24:32.168Z,3196.00
2022-08-25T07:25:32.184Z,3184.00
2022-08-25T07:26:39.424Z,3176.00
2022-08-25T07:27:34.139Z,3216.00
2022-08-25T07:28:32.138Z,3208.00
2022-08-25T07:29:33.255Z,3216.00
2022-08-25T07:30:32.146Z,3196.00
2022-08-25T07:31:32.142Z,3208.00
2022-08-25T07:32:32.089Z,3216.00
2022-08-25T07:33:32.079Z,3184.00
2022-08-25T07:34:32.074Z,3288.00
2022-08-25T07:35:37.540Z,3292.00
2022-08-25T07:36:33.063Z,3220.00
2022-08-25T07:37:48.092Z,3224.00
2022-08-25T07:38:34.037Z,3144.00
2022-08-25T07:39:32.026Z,3104.00
2022-08-25T07:40:32.082Z,3032.00
2022-08-25T07:41:33.034Z,2888.00
2022-08-25T07:42:31.997Z,2828.00
2022-08-25T07:43:31.987Z,3004.00
2022-08-25T07:44:31.977Z,2872.00
2022-08-25T07:45:31.966Z,2800.00
2022-08-25T07:46:32.060Z,2824.00
2022-08-25T07:47:31.979Z,2876.00
2022-08-25T07:48:31.944Z,2840.00
2022-08-25T07:49:35.704Z,2820.00
2022-08-25T07:50:31.922Z,2808.00
2022-08-25T07:51:31.945Z,2808.00
2022-08-25T07:52:31.907Z,2832.00
2022-08-25T07:53:31.912Z,2856.00
2022-08-25T07:54:34.680Z,2912.00
2022-08-25T07:55:31.885Z,2904.00
2022-08-25T07:56:31.907Z,2944.00
2022-08-25T07:57:31.860Z,2980.00
2022-08-25T07:58:31.847Z,3012.00
2022-08-25T07:59:39.025Z,2976.00
2022-08-25T08:00:33.820Z,3104.00
2022-08-25T08:01:31.896Z,3120.00
2022-08-25T08:02:31.847Z,3132.00
2022-08-25T08:03:45.380Z,3144.00
2022-08-25T08:04:33.787Z,3124.00
2022-08-25T08:05:31.777Z,3152.00
2022-08-25T08:06:31.807Z,3144.00
2022-08-25T08:07:42.064Z,3128.00
2022-08-25T08:08:32.745Z,3152.00
2022-08-25T08:09:31.761Z,3120.00
2022-08-25T08:11:33.722Z,3136.00
2022-08-25T08:12:31.715Z,3140.00
2022-08-25T08:13:32.700Z,3168.00
2022-08-25T08:14:31.690Z,3188.00
2022-08-25T08:15:31.692Z,3204.00
2022-08-25T08:16:31.745Z,3232.00
2022-08-25T08:17:31.680Z,3252.00
2022-08-25T08:18:31.664Z,3288.00
2022-08-25T08:19:31.643Z,3284.00
2022-08-25T08:20:31.649Z,3304.00
2022-08-25T08:21:32.633Z,3332.00
2022-08-25T08:22:31.631Z,3356.00
2022-08-25T08:23:31.606Z,3384.00
2022-08-25T08:24:44.909Z,3424.00
2022-08-25T08:25:33.587Z,3484.00
2022-08-25T08:26:55.352Z,3572.00
2022-08-25T08:27:33.593Z,3656.00
2022-08-25T08:28:31.561Z,3688.00
2022-08-25T08:29:31.633Z,3768.00
2022-08-25T08:30:31.540Z,3800.00
2022-08-25T08:31:31.565Z,3804.00
2022-08-25T08:32:46.448Z,3772.00
2022-08-25T08:33:33.544Z,3792.00
2022-08-25T08:34:32.505Z,3884.00
2022-08-25T08:35:31.497Z,4020.00
2022-08-25T08:36:31.482Z,4156.00
2022-08-25T08:37:31.535Z,4136.00
2022-08-25T08:38:31.464Z,4124.00
2022-08-25T08:39:31.461Z,4016.00
2022-08-25T08:40:31.500Z,4028.00
2022-08-25T08:41:33.878Z,4108.00
2022-08-25T08:42:32.469Z,4148.00
2022-08-25T08:43:33.331Z,4052.00
2022-08-25T08:44:32.405Z,3820.00
2022-08-25T08:45:31.406Z,3412.00
2022-08-25T08:46:31.430Z,4008.00
2022-08-25T08:47:31.378Z,4072.00
2022-08-25T08:48:31.437Z,3868.00
2022-08-25T08:49:31.360Z,4044.00
2022-08-25T08:50:33.177Z,3976.00
2022-08-25T08:51:33.116Z,4112.00
2022-08-25T08:52:31.329Z,3848.00
2022-08-25T08:53:33.978Z,3992.00
2022-08-25T08:54:31.309Z,3376.00
2022-08-25T08:55:31.300Z,3272.00
2022-08-25T08:56:31.341Z,4032.00
2022-08-25T08:57:31.278Z,4208.00
2022-08-25T08:58:31.268Z,4328.00
2022-08-25T08:59:31.280Z,4552.00
2022-08-25T09:00:31.247Z,4116.00
2022-08-25T09:01:31.296Z,3932.00
2022-08-25T09:02:39.163Z,3852.00
2022-08-25T09:03:32.271Z,4160.00
2022-08-25T09:04:31.210Z,4288.00
2022-08-25T09:05:31.206Z,4892.00
2022-08-25T09:06:31.204Z,4692.00
2022-08-25T09:07:31.177Z,4104.00
2022-08-25T09:08:31.186Z,4900.00
2022-08-25T09:09:31.163Z,4384.00
2022-08-25T09:10:31.144Z,4428.00
2022-08-25T09:11:31.156Z,4148.00
2022-08-25T09:12:31.138Z,3620.00
2022-08-25T09:13:31.180Z,3536.00
2022-08-25T09:14:31.116Z,3892.00
2022-08-25T09:15:31.223Z,4728.00
2022-08-25T09:16:34.285Z,5108.00
2022-08-25T09:17:31.104Z,5032.00
2022-08-25T09:18:31.103Z,4988.00
2022-08-25T09:19:31.065Z,4616.00
2022-08-25T09:20:31.065Z,4544.00
2022-08-25T09:21:31.049Z,4460.00
2022-08-25T09:22:35.497Z,4148.00
2022-08-25T09:23:32.066Z,4256.00
2022-08-25T09:24:31.020Z,4448.00
2022-08-25T09:26:33.018Z,4856.00
2022-08-25T09:27:30.991Z,4908.00
2022-08-25T09:28:30.975Z,5124.00
2022-08-25T09:29:30.986Z,4860.00
2022-08-25T09:30:30.969Z,3744.00
2022-08-25T09:31:31.011Z,3692.00
2022-08-25T09:32:31.236Z,4788.00
2022-08-25T09:33:30.937Z,4652.00
2022-08-25T09:34:30.942Z,4988.00
2022-08-25T09:35:30.916Z,4012.00
2022-08-25T09:36:35.474Z,3468.00
2022-08-25T09:37:32.897Z,3448.00
2022-08-25T09:38:30.893Z,3240.00
2022-08-25T09:39:30.895Z,3128.00
2022-08-25T09:40:30.938Z,3332.00
2022-08-25T09:41:30.859Z,4480.00
2022-08-25T09:42:30.874Z,5108.00
2022-08-25T09:43:30.843Z,5720.00
2022-08-25T09:44:30.845Z,5424.00
2022-08-25T09:45:30.823Z,5212.00
2022-08-25T09:46:30.835Z,4984.00
2022-08-25T09:47:30.806Z,4740.00
2022-08-25T09:48:30.793Z,4160.00
2022-08-25T09:49:30.836Z,4236.00
2022-08-25T09:50:30.777Z,3820.00
2022-08-25T09:51:38.251Z,4716.00
2022-08-25T09:52:31.766Z,3748.00
2022-08-25T09:53:33.709Z,3884.00
2022-08-25T09:54:44.054Z,5724.00
2022-08-25T09:55:32.486Z,5992.00
2022-08-25T09:56:30.745Z,5504.00
2022-08-25T09:57:30.717Z,4584.00
2022-08-25T09:58:30.705Z,4076.00
2022-08-25T09:59:30.936Z,5220.00
2022-08-25T10:00:30.755Z,6216.00
2022-08-25T10:01:34.530Z,6464.00
2022-08-25T10:02:30.657Z,5992.00
2022-08-25T10:03:30.652Z,5648.00
2022-08-25T10:04:31.638Z,5584.00
2022-08-25T10:05:30.709Z,5568.00
2022-08-25T10:06:30.643Z,5556.00
2022-08-25T10:07:30.615Z,5468.00
2022-08-25T10:08:30.608Z,5512.00
2022-08-25T10:09:30.598Z,5892.00
2022-08-25T10:10:32.395Z,5904.00
2022-08-25T10:11:30.582Z,6036.00
2022-08-25T10:12:30.572Z,6136.00
2022-08-25T10:13:30.564Z,6196.00
2022-08-25T10:14:30.553Z,6832.00
2022-08-25T10:15:30.806Z,4932.00
2022-08-25T10:16:36.086Z,6980.00
2022-08-25T10:17:33.386Z,7560.00
2022-08-25T10:18:30.517Z,4948.00
2022-08-25T10:19:30.513Z,4416.00
2022-08-25T10:20:34.996Z,4000.00
2022-08-25T10:21:30.520Z,3884.00
2022-08-25T10:22:30.487Z,3980.00
2022-08-25T10:23:30.658Z,3792.00
2022-08-25T10:24:31.464Z,4164.00
2022-08-25T10:25:30.464Z,4360.00
2022-08-25T10:26:34.613Z,8088.00
2022-08-25T10:27:31.444Z,4908.00
2022-08-25T10:28:30.440Z,10136.00
2022-08-25T10:29:30.422Z,4484.00
2022-08-25T10:30:30.418Z,3876.00
2022-08-25T10:31:32.908Z,12284.00
2022-08-25T10:32:30.393Z,5512.00
2022-08-25T10:33:30.385Z,5332.00
2022-08-25T10:34:30.775Z,4840.00
2022-08-25T10:35:30.368Z,5828.00
2022-08-25T10:36:30.397Z,5108.00
2022-08-25T10:37:32.929Z,4988.00
2022-08-25T10:38:35.206Z,6060.00
2022-08-25T10:39:36.267Z,5428.00
2022-08-25T10:40:30.356Z,5460.00
2022-08-25T10:41:30.314Z,5976.00
2022-08-25T10:42:30.316Z,6312.00
2022-08-25T10:43:30.288Z,5612.00
2022-08-25T10:44:30.284Z,28800.00
2022-08-25T10:45:30.308Z,30464.00
2022-08-25T10:46:30.323Z,17056.00
2022-08-25T10:47:30.271Z,36224.00
2022-08-25T10:48:30.256Z,36864.00
2022-08-25T10:49:30.243Z,34528.00
2022-08-25T10:50:30.227Z,31840.00
2022-08-25T10:51:30.221Z,11696.00
2022-08-25T10:52:30.224Z,6732.00
2022-08-25T10:53:30.201Z,29312.00
2022-08-25T10:54:30.189Z,30976.00
2022-08-25T10:55:30.175Z,33056.00
2022-08-25T10:56:31.198Z,36000.00
2022-08-25T10:57:30.196Z,36480.00
2022-08-25T10:58:30.600Z,35008.00
2022-08-25T10:59:30.146Z,32448.00
2022-08-25T11:00:31.732Z,25120.00
2022-08-25T11:01:34.719Z,4412.00
2022-08-25T11:02:32.159Z,4744.00
2022-08-25T11:03:30.111Z,5940.00
2022-08-25T11:04:31.097Z,5176.00
2022-08-25T11:05:30.142Z,32416.00
2022-08-25T11:06:30.077Z,32448.00
2022-08-25T11:07:30.080Z,5440.00
2022-08-25T11:08:30.077Z,5400.00
2022-08-25T11:09:30.048Z,4780.00
2022-08-25T11:10:30.040Z,4996.00
2022-08-25T11:11:30.030Z,5880.00
2022-08-25T11:12:30.024Z,7368.00
2022-08-25T11:13:30.039Z,4960.00
2022-08-25T11:14:34.333Z,15328.00
2022-08-25T11:15:31.145Z,7184.00
2022-08-25T11:16:30.030Z,4392.00
2022-08-25T11:17:29.994Z,3736.00
2022-08-25T11:18:29.978Z,3968.00
2022-08-25T11:19:29.957Z,5548.00
2022-08-25T11:20:30.052Z,8468.00
2022-08-25T11:21:29.966Z,10860.00
2022-08-25T11:22:29.928Z,10416.00
2022-08-25T11:23:29.932Z,3736.00
2022-08-25T11:24:29.911Z,3816.00
2022-08-25T11:25:29.917Z,4420.00
2022-08-25T11:26:32.835Z,21728.00
2022-08-25T11:27:30.883Z,26176.00
2022-08-25T11:28:30.415Z,4624.00
2022-08-25T11:29:29.868Z,4460.00
2022-08-25T11:30:29.924Z,10120.00
2022-08-25T11:31:29.864Z,31008.00
2022-08-25T11:32:29.837Z,28576.00
2022-08-25T11:33:29.850Z,23104.00
2022-08-25T11:34:29.822Z,7060.00
2022-08-25T11:35:30.821Z,24768.00
2022-08-25T11:36:29.861Z,25408.00
2022-08-25T11:37:29.804Z,25536.00
2022-08-25T11:38:29.801Z,26816.00
2022-08-25T11:39:32.962Z,27840.00
2022-08-25T11:40:30.803Z,27104.00
2022-08-25T11:41:29.759Z,4312.00
2022-08-25T11:42:29.750Z,3904.00
2022-08-25T11:43:29.786Z,4308.00
2022-08-25T11:44:30.736Z,4808.00
2022-08-25T11:45:29.722Z,25408.00
2022-08-25T11:46:29.778Z,24672.00
2022-08-25T11:47:30.709Z,6276.00
2022-08-25T11:48:29.741Z,4560.00
2022-08-25T11:49:29.688Z,4012.00
2022-08-25T11:50:30.280Z,3956.00
2022-08-25T11:51:30.962Z,3808.00
2022-08-25T11:52:30.747Z,4204.00
2022-08-25T11:53:30.697Z,5724.00
2022-08-25T11:54:29.642Z,6656.00
2022-08-25T11:55:29.637Z,11696.00
2022-08-25T11:56:29.621Z,9100.00
2022-08-25T11:57:29.610Z,4840.00
2022-08-25T11:58:30.578Z,4788.00
2022-08-25T11:59:29.611Z,4684.00
2022-08-25T12:00:29.612Z,4492.00
2022-08-25T12:01:29.658Z,4300.00
2022-08-25T12:02:29.570Z,4552.00
2022-08-25T12:03:29.558Z,16896.00
2022-08-25T12:04:29.632Z,5692.00
2022-08-25T12:05:29.600Z,6144.00
2022-08-25T12:06:29.527Z,5764.00
2022-08-25T12:07:29.518Z,4176.00
2022-08-25T12:08:29.510Z,4440.00
2022-08-25T12:09:29.522Z,4828.00
2022-08-25T12:10:29.494Z,5940.00
2022-08-25T12:11:29.483Z,4652.00
2022-08-25T12:12:30.471Z,11660.00
2022-08-25T12:13:29.462Z,5140.00
2022-08-25T12:14:29.468Z,13896.00
2022-08-25T12:15:29.443Z,15360.00
2022-08-25T12:16:29.485Z,14720.00
2022-08-25T12:17:29.432Z,14060.00
2022-08-25T12:18:29.416Z,17536.00
2022-08-25T12:19:29.441Z,6080.00
2022-08-25T12:20:29.403Z,5412.00
2022-08-25T12:21:29.389Z,5448.00
2022-08-25T12:22:29.378Z,6064.00
2022-08-25T12:23:29.364Z,15584.00
2022-08-25T12:24:29.381Z,14944.00
2022-08-25T12:25:30.349Z,7728.00
2022-08-25T12:26:29.339Z,8760.00
2022-08-25T12:27:29.336Z,12472.00
2022-08-25T12:28:29.322Z,5460.00
2022-08-25T12:29:30.361Z,6588.00
2022-08-25T12:30:29.371Z,5496.00